Terminal Aerodrome Forecast
Issued by NWS Omaha/Valley, NE

Home | Current Version | Previous Version | Graphics & Text | Print | Product List | Glossary On
Versions: 1 2 3 4 5 6 7 8 9 10 11 12 13 14 15 16 17 18 19 20 21 22 23 24 25 26 27 28 29 30 31 32 33 34 35 36 37 38
000
FTUS43 KOAX 211611 AAC
TAFOFK
TAF AMD
KOFK 211611Z 2116/2212 22013G20KT P6SM -SHRA VCTS SCT025CB OVC050
     FM211700 26014KT P6SM -SHRA VCTS BKN035CB
     FM211800 31015G23KT P6SM BKN045
     FM212200 31010KT P6SM SCT250=

USA.gov is the U.S. government's official web portal to all federal, state and local government web resources and services.